Time;durP1;ratioP1;P1;durP2;ratioP2;P2;SDS_P1;SDS_P2;PMS_P1;PMS_P2;Temp;Humidity;BMP_temperature;BMP_pressure;BME280_temperature;BME280_humidity;BME280_pressure;Samples;Min_cycle;Max_cycle;Signal;HPM_P1;HPM_P2
2023/10/04 00:00:53;;;;;;;0.80;0.80;;;11.70;73.30;10.90;97143.00;;;;5053431;28;20655;-62
2023/10/04 00:03:21;;;;;;;0.77;0.77;;;11.70;73.10;10.80;97142.00;;;;5051609;28;20196;-62
2023/10/04 00:05:49;;;;;;;1.10;1.10;;;11.60;72.50;10.80;97153.00;;;;5052983;28;20191;-62
2023/10/04 00:08:16;;;;;;;0.70;0.70;;;11.60;72.40;10.80;97158.00;;;;5052856;28;20224;-62
2023/10/04 00:10:45;;;;;;;1.20;1.20;;;11.60;72.70;10.80;97160.00;;;;5052760;28;20558;-62
2023/10/04 00:13:13;;;;;;;0.93;0.93;;;11.60;72.10;10.80;97160.00;;;;5052667;28;20196;-61
2023/10/04 00:15:40;;;;;;;0.70;0.70;;;11.50;71.70;10.80;97166.00;;;;5052867;28;20192;-61
2023/10/04 00:18:09;;;;;;;0.63;0.63;;;11.50;71.70;10.70;97168.00;;;;5056436;28;20663;-61
2023/10/04 00:20:36;;;;;;;0.63;0.63;;;11.50;71.70;10.70;97165.00;;;;5056722;28;20615;-61
2023/10/04 00:23:05;;;;;;;0.70;0.70;;;11.40;71.80;10.60;97161.00;;;;5057067;28;20207;-61
2023/10/04 00:25:34;;;;;;;0.80;0.80;;;11.40;71.90;10.60;97170.00;;;;5056348;28;20732;-61
2023/10/04 00:28:03;;;;;;;1.33;1.27;;;11.40;71.70;10.60;97170.00;;;;5056415;28;20188;-61
2023/10/04 00:30:31;;;;;;;1.80;1.70;;;11.40;71.70;10.60;97166.00;;;;5054903;28;20200;-62
2023/10/04 00:33:02;;;;;;;0.70;0.70;;;11.40;72.70;10.60;97159.00;;;;5056275;28;20235;-61
2023/10/04 00:35:29;;;;;;;1.00;1.00;;;11.40;73.40;10.60;97163.00;;;;5056439;28;20208;-62
2023/10/04 00:37:57;;;;;;;0.60;0.60;;;11.40;73.50;10.70;97152.00;;;;5056094;28;20655;-61
2023/10/04 00:40:27;;;;;;;1.23;1.00;;;11.40;73.80;10.80;97152.00;;;;5056493;28;20195;-61
2023/10/04 00:42:56;;;;;;;0.73;0.73;;;11.50;74.60;10.70;97156.00;;;;5056355;28;20311;-62
2023/10/04 00:45:25;;;;;;;0.80;0.80;;;11.50;73.50;10.70;97160.00;;;;5055994;28;20188;-62
2023/10/04 00:47:57;;;;;;;1.73;1.63;;;11.40;73.20;10.70;97166.00;;;;5055874;28;20188;-62
2023/10/04 00:50:31;;;;;;;0.60;0.60;;;11.30;72.70;10.50;97147.00;;;;5056316;28;20181;-62
2023/10/04 00:53:05;;;;;;;1.13;1.10;;;11.20;72.60;10.50;97153.00;;;;5056250;28;20643;-62
2023/10/04 00:55:34;;;;;;;0.87;0.87;;;11.30;73.70;10.20;97164.00;;;;5054555;28;20234;-62
2023/10/04 00:58:05;;;;;;;1.17;1.17;;;11.10;73.40;10.30;97147.00;;;;5055551;28;20194;-62
2023/10/04 01:00:34;;;;;;;0.90;0.90;;;11.00;74.60;10.20;97147.00;;;;5055577;28;20624;-60
2023/10/04 01:03:02;;;;;;;1.13;0.97;;;11.00;74.40;10.20;97143.00;;;;5055392;28;20218;-62
2023/10/04 01:05:31;;;;;;;0.67;0.67;;;11.00;74.70;10.10;97133.00;;;;5055748;28;20196;-62
2023/10/04 01:08:00;;;;;;;0.60;0.60;;;11.00;73.50;9.80;97146.00;;;;5055331;28;20648;-61
2023/10/04 01:10:31;;;;;;;0.63;0.63;;;10.60;74.00;9.90;97139.00;;;;5055338;28;20629;-61
2023/10/04 01:12:59;;;;;;;0.70;0.70;;;10.70;75.20;10.10;97141.00;;;;5055353;28;20208;-61
2023/10/04 01:15:32;;;;;;;0.70;0.70;;;10.80;75.80;10.20;97141.00;;;;5055372;28;20737;-61
2023/10/04 01:18:04;;;;;;;1.03;1.03;;;10.90;75.90;10.30;97142.00;;;;5053902;28;20208;-61
2023/10/04 01:20:33;;;;;;;5.67;1.20;;;11.00;76.10;10.40;97143.00;;;;5055266;28;20185;-61
2023/10/04 01:23:05;;;;;;;0.80;0.80;;;11.10;76.10;10.30;97133.00;;;;5055089;28;20215;-61
2023/10/04 01:25:35;;;;;;;0.83;0.83;;;11.10;75.60;10.30;97139.00;;;;5055571;28;20532;-61
2023/10/04 01:28:07;;;;;;;0.70;0.70;;;11.00;75.10;10.30;97146.00;;;;5054593;28;20192;-62
2023/10/04 01:30:35;;;;;;;0.77;0.77;;;11.00;75.00;10.00;97147.00;;;;5055049;28;20702;-60
2023/10/04 01:33:03;;;;;;;1.07;1.07;;;10.80;72.90;9.80;97154.00;;;;5054947;28;20710;-60
2023/10/04 01:35:33;;;;;;;0.77;0.77;;;10.60;73.60;9.80;97139.00;;;;5053943;28;20198;-61
2023/10/04 01:38:04;;;;;;;0.53;0.53;;;10.60;75.40;9.90;97152.00;;;;5055380;28;20211;-61
2023/10/04 01:40:34;;;;;;;0.60;0.60;;;10.60;75.90;10.00;97148.00;;;;5055019;28;20223;-62
2023/10/04 01:43:00;;;;;;;0.80;0.80;;;10.80;76.30;10.10;97139.00;;;;5054614;28;20290;-61
2023/10/04 01:45:27;;;;;;;0.60;0.60;;;10.80;75.80;10.10;97146.00;;;;5054756;28;20192;-61
2023/10/04 01:47:55;;;;;;;0.60;0.60;;;10.80;75.70;10.00;97133.00;;;;5054680;28;20184;-61
2023/10/04 01:50:24;;;;;;;0.80;0.80;;;10.80;75.30;10.00;97136.00;;;;5054608;28;20196;-61
2023/10/04 01:52:52;;;;;;;0.80;0.80;;;10.70;75.30;10.00;97144.00;;;;5054472;28;20302;-61
2023/10/04 01:55:20;;;;;;;0.70;0.70;;;10.70;75.50;10.10;97139.00;;;;5054573;28;20222;-61
2023/10/04 01:57:47;;;;;;;1.33;1.23;;;10.80;74.80;10.00;97141.00;;;;5054394;28;20188;-61
2023/10/04 02:00:17;;;;;;;0.80;0.80;;;10.70;74.80;9.90;97148.00;;;;5054391;28;20582;-61
2023/10/04 02:02:46;;;;;;;1.47;1.37;;;10.70;74.50;9.80;97143.00;;;;5054447;28;20212;-61
2023/10/04 02:05:19;;;;;;;0.60;0.60;;;10.60;73.70;9.80;97144.00;;;;5054545;28;20192;-61
2023/10/04 02:07:46;;;;;;;1.00;1.00;;;10.50;73.50;9.70;97143.00;;;;5055083;28;20184;-61
2023/10/04 02:10:17;;;;;;;0.60;0.60;;;;;9.60;97141.00;;;;5054348;28;20549;-61
2023/10/04 02:12:46;;;;;;;0.50;0.50;;;10.40;72.80;9.70;97132.00;;;;5054454;28;20298;-61
2023/10/04 02:15:16;;;;;;;0.80;0.80;;;10.50;73.90;9.70;97141.00;;;;5054536;28;20598;-61
2023/10/04 02:17:44;;;;;;;0.77;0.77;;;10.40;73.40;9.60;97139.00;;;;5054101;28;20664;-61
2023/10/04 02:20:21;;;;;;;0.90;0.90;;;10.30;74.10;9.50;97131.00;;;;5054029;28;20302;-61
2023/10/04 02:22:48;;;;;;;0.70;0.70;;;10.30;74.20;9.60;97142.00;;;;5054042;28;20291;-61
2023/10/04 02:25:17;;;;;;;0.83;0.83;;;10.30;75.10;9.60;97141.00;;;;5054348;28;20193;-61
2023/10/04 02:27:45;;;;;;;4.20;1.07;;;10.30;75.30;9.60;97144.00;;;;5054102;28;20267;-61
2023/10/04 02:30:21;;;;;;;1.23;1.13;;;10.40;75.80;9.50;97156.00;;;;5054501;28;20659;-61
2023/10/04 02:32:50;;;;;;;0.60;0.60;;;10.30;75.10;9.50;97139.00;;;;5053963;28;20216;-61
2023/10/04 02:35:26;;;;;;;0.60;0.60;;;10.30;74.50;9.50;97159.00;;;;5053934;28;20223;-61
2023/10/04 02:37:58;;;;;;;0.90;0.90;;;10.30;74.20;9.50;97149.00;;;;5054183;28;20190;-61
2023/10/04 02:40:27;;;;;;;0.80;0.80;;;10.30;74.00;9.40;97161.00;;;;5051639;28;20212;-61
2023/10/04 02:42:56;;;;;;;0.60;0.60;;;10.20;74.10;9.40;97152.00;;;;5053633;28;20274;-61
2023/10/04 02:45:24;;;;;;;0.87;0.87;;;10.20;73.90;9.30;97155.00;;;;5053618;28;20595;-60
2023/10/04 02:47:53;;;;;;;0.60;0.60;;;10.10;73.10;9.20;97152.00;;;;5053598;28;20192;-60
2023/10/04 02:50:22;;;;;;;1.10;1.10;;;10.00;73.40;9.30;97160.00;;;;5053725;28;20282;-61
2023/10/04 02:52:51;;;;;;;0.80;0.80;;;10.00;73.70;9.30;97164.00;;;;5053489;28;20215;-61
2023/10/04 02:55:19;;;;;;;0.60;0.60;;;10.10;73.80;9.40;97171.00;;;;5052157;28;20311;-61
2023/10/04 02:57:50;;;;;;;1.27;1.17;;;10.10;73.90;9.40;97168.00;;;;5052228;28;20195;-62
2023/10/04 03:00:21;;;;;;;0.83;0.77;;;10.10;73.50;9.20;97165.00;;;;5053667;28;20204;-61
2023/10/04 03:02:52;;;;;;;0.50;0.50;;;10.10;73.10;9.20;97160.00;;;;5053430;28;20216;-60
2023/10/04 03:05:20;;;;;;;0.73;0.73;;;10.00;73.00;9.20;97172.00;;;;5053644;28;20204;-60
2023/10/04 03:07:50;;;;;;;0.50;0.50;;;10.00;73.40;9.10;97166.00;;;;5053316;28;20192;-60
2023/10/04 03:10:24;;;;;;;0.80;0.80;;;;;9.10;97170.00;;;;5053327;28;20196;-61
2023/10/04 03:12:53;;;;;;;0.60;0.60;;;9.80;72.30;9.00;97156.00;;;;5053311;28;20219;-61
2023/10/04 03:15:23;;;;;;;0.80;0.80;;;9.80;73.00;9.00;97172.00;;;;5053680;28;20211;-61
2023/10/04 03:17:52;;;;;;;0.67;0.67;;;9.80;73.20;9.10;97162.00;;;;5052997;28;20199;-61
2023/10/04 03:20:21;;;;;;;0.60;0.60;;;;;9.00;97167.00;;;;5053417;28;20298;-62
2023/10/04 03:22:49;;;;;;;0.70;0.70;;;9.80;72.00;9.00;97161.00;;;;5053042;28;20223;-61
2023/10/04 03:25:17;;;;;;;0.80;0.80;;;9.70;73.90;9.10;97172.00;;;;5053007;28;20202;-61
2023/10/04 03:27:45;;;;;;;0.63;0.63;;;9.80;73.60;9.00;97162.00;;;;5052971;28;20614;-61
2023/10/04 03:30:15;;;;;;;0.70;0.70;;;9.80;73.10;9.10;97140.00;;;;5052010;28;20206;-61
2023/10/04 03:32:52;;;;;;;0.70;0.70;;;9.80;73.40;9.00;97167.00;;;;5053126;28;20223;-61
2023/10/04 03:35:21;;;;;;;0.67;0.67;;;9.80;73.00;8.80;97172.00;;;;5053209;28;20187;-61
2023/10/04 03:37:58;;;;;;;0.70;0.70;;;9.70;72.60;8.80;97175.00;;;;5052857;28;20207;-61
2023/10/04 03:40:34;;;;;;;2.87;0.80;;;;;8.70;97162.00;;;;5052962;28;20667;-61
2023/10/04 03:43:02;;;;;;;0.87;0.87;;;9.50;72.20;8.80;97172.00;;;;5053205;28;20709;-61
2023/10/04 03:45:30;;;;;;;0.70;0.70;;;;;8.60;97166.00;;;;5051612;28;20200;-61
2023/10/04 03:47:58;;;;;;;1.17;1.17;;;9.40;72.50;8.50;97167.00;;;;5052870;28;20220;-61
2023/10/04 03:50:27;;;;;;;1.10;1.10;;;9.30;73.50;8.60;97144.00;;;;5053955;28;20199;-61
2023/10/04 03:52:57;;;;;;;1.03;1.03;;;9.30;74.40;8.50;97159.00;;;;5056970;28;20623;-61
2023/10/04 03:55:25;;;;;;;0.80;0.80;;;9.30;74.80;8.60;97159.00;;;;5057477;28;20191;-61
2023/10/04 03:57:52;;;;;;;0.70;0.70;;;9.30;75.00;8.60;97156.00;;;;5056850;28;20203;-61
2023/10/04 04:00:22;;;;;;;0.80;0.80;;;9.30;75.20;8.50;97168.00;;;;5057136;28;20211;-61
2023/10/04 04:02:50;;;;;;;0.87;0.87;;;9.30;75.40;8.60;97179.00;;;;5056717;28;20212;-61
2023/10/04 04:05:21;;;;;;;0.80;0.80;;;9.30;76.10;8.60;97176.00;;;;5056897;28;20215;-61
2023/10/04 04:07:49;;;;;;;0.60;0.60;;;9.30;77.30;8.80;97176.00;;;;5057228;28;20200;-61
2023/10/04 04:10:19;;;;;;;4.03;1.33;;;9.50;77.40;8.70;97173.00;;;;5055662;28;20250;-60
2023/10/04 04:12:47;;;;;;;0.63;0.63;;;9.50;76.70;8.60;97177.00;;;;5056665;28;20208;-60
2023/10/04 04:15:15;;;;;;;0.60;0.60;;;9.40;76.90;8.60;97162.00;;;;5056783;28;20203;-60
2023/10/04 04:17:44;;;;;;;1.87;1.73;;;9.30;77.00;8.40;97178.00;;;;5055418;28;20196;-61
2023/10/04 04:20:16;;;;;;;0.90;0.90;;;9.30;77.30;8.30;97173.00;;;;5056392;28;20212;-60
2023/10/04 04:22:50;;;;;;;0.53;0.53;;;9.20;77.20;8.30;97144.00;;;;5056482;28;20211;-60
2023/10/04 04:25:19;;;;;;;1.07;1.00;;;9.20;77.70;8.40;97162.00;;;;5056615;28;20188;-62
2023/10/04 04:27:49;;;;;;;0.53;0.53;;;9.20;78.90;8.40;97157.00;;;;5056355;28;20242;-61
2023/10/04 04:30:19;;;;;;;0.80;0.80;;;9.30;79.40;8.30;97177.00;;;;5056166;28;20203;-61
2023/10/04 04:32:49;;;;;;;0.50;0.50;;;9.10;78.40;8.30;97174.00;;;;5056957;28;20244;-61
2023/10/04 04:35:29;;;;;;;0.67;0.67;;;9.10;78.10;8.20;97184.00;;;;5056443;28;20534;-61
2023/10/04 04:38:08;;;;;;;0.53;0.53;;;9.00;78.40;8.20;97183.00;;;;5056630;28;20180;-60
2023/10/04 04:40:35;;;;;;;3.50;2.23;;;9.00;77.90;8.30;97183.00;;;;5056357;28;20258;-60
2023/10/04 04:43:18;;;;;;;0.87;0.87;;;9.00;78.40;8.10;97186.00;;;;5056401;28;20227;-60
2023/10/04 04:45:50;;;;;;;0.60;0.60;;;8.80;78.90;8.20;97173.00;;;;5056315;28;20180;-60
2023/10/04 04:48:23;;;;;;;0.90;0.90;;;9.00;79.90;8.30;97173.00;;;;5056268;28;20176;-65
2023/10/04 04:50:52;;;;;;;0.60;0.60;;;9.10;80.20;8.30;97179.00;;;;5056045;28;20184;-61
2023/10/04 04:53:22;;;;;;;0.90;0.90;;;9.10;79.40;8.30;97170.00;;;;5055691;28;20188;-61
2023/10/04 04:55:50;;;;;;;0.60;0.60;;;9.20;79.50;8.30;97142.00;;;;5056105;28;20527;-61
2023/10/04 04:58:19;;;;;;;2.17;1.73;;;9.20;78.70;8.30;97174.00;;;;5054587;28;20656;-61
2023/10/04 05:00:50;;;;;;;1.73;1.63;;;9.10;77.90;8.20;97174.00;;;;5055438;28;20273;-61
2023/10/04 05:03:18;;;;;;;1.00;1.00;;;9.00;76.90;8.00;97182.00;;;;5053792;28;20214;-61
2023/10/04 05:05:49;;;;;;;1.10;1.10;;;;;8.00;97172.00;;;;5055508;28;20199;-61
2023/10/04 05:08:17;;;;;;;0.60;0.60;;;;;8.00;97184.00;;;;5055715;28;20180;-61
2023/10/04 05:10:48;;;;;;;0.90;0.90;;;8.70;76.00;7.80;97155.00;;;;5055234;28;20242;-61
2023/10/04 05:13:18;;;;;;;0.90;0.90;;;8.60;76.10;7.80;97182.00;;;;5055780;28;20183;-61
2023/10/04 05:15:45;;;;;;;1.00;0.80;;;8.50;76.60;7.80;97177.00;;;;5055624;28;20219;-62
2023/10/04 05:18:16;;;;;;;0.93;0.93;;;8.60;76.10;7.80;97178.00;;;;5055432;28;20605;-61
2023/10/04 05:20:45;;;;;;;1.00;1.00;;;8.60;75.80;7.90;97162.00;;;;5055720;28;20204;-61
2023/10/04 05:23:12;;;;;;;0.60;0.60;;;8.60;76.20;8.00;97163.00;;;;5055746;28;20682;-61
2023/10/04 05:25:40;;;;;;;0.87;0.87;;;;;8.00;97168.00;;;;5055337;28;20195;-61
2023/10/04 05:28:11;;;;;;;8.13;5.70;;;8.70;75.80;8.10;97173.00;;;;5055337;28;20602;-61
2023/10/04 05:30:41;;;;;;;2.03;1.90;;;8.80;77.40;8.00;97172.00;;;;5055329;28;20211;-61
2023/10/04 05:33:10;;;;;;;0.70;0.70;;;8.80;77.20;8.00;97145.00;;;;5055406;28;20220;-61
2023/10/04 05:35:38;;;;;;;1.03;1.03;;;8.80;77.50;8.10;97186.00;;;;5055128;28;20195;-61
2023/10/04 05:38:06;;;;;;;1.17;0.80;;;;;8.10;97185.00;;;;5055541;28;20195;-61
2023/10/04 05:40:35;;;;;;;0.90;0.90;;;8.90;77.60;8.10;97186.00;;;;5053587;28;20242;-62
2023/10/04 05:43:03;;;;;;;0.97;0.97;;;8.90;78.00;8.10;97183.00;;;;5055126;28;20212;-61
2023/10/04 05:45:33;;;;;;;0.50;0.50;;;8.90;77.70;8.20;97179.00;;;;5055047;28;20188;-61
2023/10/04 05:48:00;;;;;;;0.60;0.60;;;8.90;76.80;8.30;97184.00;;;;5055084;28;20547;-61
2023/10/04 05:50:32;;;;;;;1.20;1.00;;;9.00;77.20;8.40;97177.00;;;;5055143;28;20191;-62
2023/10/04 05:53:05;;;;;;;2.03;1.93;;;9.10;77.20;8.30;97167.00;;;;5055000;28;20572;-61
2023/10/04 05:55:34;;;;;;;1.10;1.10;;;9.00;76.60;8.20;97183.00;;;;5054859;28;20242;-62
2023/10/04 05:58:03;;;;;;;1.00;1.00;;;9.10;76.50;8.30;97173.00;;;;5054928;28;20188;-61
2023/10/04 06:00:33;;;;;;;0.70;0.70;;;9.00;75.40;8.10;97176.00;;;;5054803;28;20270;-61
2023/10/04 06:03:04;;;;;;;0.77;0.77;;;8.80;75.60;8.10;97180.00;;;;5054715;28;20710;-61
2023/10/04 06:05:34;;;;;;;0.77;0.77;;;8.90;75.40;8.10;97172.00;;;;5054865;28;20283;-61
2023/10/04 06:08:05;;;;;;;1.00;1.00;;;8.90;76.30;8.10;97173.00;;;;5054482;28;20422;-61
2023/10/04 06:10:34;;;;;;;0.63;0.63;;;8.90;76.60;8.20;97184.00;;;;5054460;28;20180;-61
2023/10/04 06:13:01;;;;;;;0.90;0.90;;;8.90;77.60;8.30;97186.00;;;;5055389;28;20512;-62
2023/10/04 06:15:29;;;;;;;1.00;1.00;;;9.10;78.10;8.50;97189.00;;;;5054191;28;20660;-61
2023/10/04 06:17:59;;;;;;;0.73;0.73;;;9.10;78.40;8.40;97205.00;;;;5054202;28;20207;-61
2023/10/04 06:20:28;;;;;;;1.00;1.00;;;9.20;77.80;8.40;97190.00;;;;5054295;28;20278;-61
2023/10/04 06:22:59;;;;;;;0.70;0.70;;;9.10;78.30;8.40;97195.00;;;;5053116;28;20216;-61
2023/10/04 06:25:29;;;;;;;2.47;2.33;;;9.30;78.10;8.40;97194.00;;;;5054409;28;20680;-67
2023/10/04 06:27:57;;;;;;;0.50;0.50;;;9.10;77.50;8.20;97208.00;;;;5054192;28;20188;-61
2023/10/04 06:30:28;;;;;;;1.37;1.33;;;9.00;77.90;8.40;97211.00;;;;5054408;28;20192;-62
2023/10/04 06:32:56;;;;;;;0.80;0.80;;;9.00;78.80;8.30;97207.00;;;;5054023;28;20212;-61
2023/10/04 06:35:26;;;;;;;0.60;0.60;;;9.10;78.90;8.30;97208.00;;;;5053993;28;20223;-61
2023/10/04 06:37:55;;;;;;;0.57;0.57;;;9.10;78.40;8.50;97207.00;;;;5053832;28;20195;-61
2023/10/04 06:40:24;;;;;;;0.60;0.60;;;9.20;78.80;8.50;97202.00;;;;5054221;28;20273;-62
2023/10/04 06:42:53;;;;;;;1.23;1.23;;;9.20;78.30;8.60;97207.00;;;;5053844;28;20208;-61
2023/10/04 06:45:24;;;;;;;0.80;0.80;;;9.20;78.30;8.70;97210.00;;;;5053831;28;20271;-62
2023/10/04 06:47:53;;;;;;;0.63;0.63;;;9.40;78.20;8.80;97219.00;;;;5054434;28;20176;-60
2023/10/04 06:50:23;;;;;;;1.17;1.13;;;9.50;78.00;8.80;97218.00;;;;5053879;28;20260;-61
2023/10/04 06:52:53;;;;;;;0.67;0.67;;;9.50;77.40;8.80;97223.00;;;;5053869;28;20208;-61
2023/10/04 06:55:21;;;;;;;0.60;0.60;;;9.50;76.90;8.90;97220.00;;;;5052403;28;20199;-61
2023/10/04 06:57:49;;;;;;;0.87;0.87;;;9.50;77.30;9.00;97214.00;;;;5053651;28;20279;-61
2023/10/04 07:00:18;;;;;;;0.60;0.60;;;9.60;77.00;9.20;97233.00;;;;5053512;28;20216;-61
2023/10/04 07:02:48;;;;;;;0.87;0.87;;;9.80;77.10;9.30;97226.00;;;;5052317;28;20216;-61
2023/10/04 07:05:19;;;;;;;1.87;1.77;;;9.90;76.40;9.40;97210.00;;;;5053591;28;20188;-61
2023/10/04 07:07:47;;;;;;;0.67;0.67;;;10.00;76.80;9.30;97223.00;;;;5053431;28;20663;-61
2023/10/04 07:10:20;;;;;;;0.80;0.80;;;10.00;75.90;9.50;97216.00;;;;5069750;28;20295;-61
2023/10/04 07:12:51;;;;;;;0.77;0.77;;;10.10;76.40;9.40;97216.00;;;;5053509;28;20262;-61
2023/10/04 07:15:19;;;;;;;0.90;0.90;;;10.00;75.80;9.60;97217.00;;;;5053438;28;20176;-62
2023/10/04 07:17:48;;;;;;;0.70;0.70;;;10.20;76.10;9.60;97215.00;;;;5053272;28;20655;-61
2023/10/04 07:20:18;;;;;;;0.90;0.77;;;10.20;75.60;9.70;97219.00;;;;5053323;28;20201;-61
2023/10/04 07:22:48;;;;;;;0.67;0.67;;;;;9.70;97219.00;;;;5053334;28;20222;-61
2023/10/04 07:25:16;;;;;;;0.80;0.80;;;10.40;74.40;9.70;97227.00;;;;5052796;28;20689;-61
2023/10/04 07:27:46;;;;;;;2.93;1.10;;;10.40;74.70;9.50;97219.00;;;;5053137;28;20589;-61
2023/10/04 07:30:15;;;;;;;0.80;0.80;;;10.20;75.30;9.50;97189.00;;;;5053502;28;20188;-61
2023/10/04 07:32:43;;;;;;;0.80;0.80;;;10.20;75.80;9.70;97220.00;;;;5053204;28;20294;-61
2023/10/04 07:35:13;;;;;;;0.57;0.57;;;10.40;75.90;10.00;97218.00;;;;5053271;28;20261;-62
2023/10/04 07:37:41;;;;;;;0.80;0.80;;;10.50;76.40;10.10;97219.00;;;;5053199;28;20184;-61
2023/10/04 07:40:13;;;;;;;0.80;0.80;;;10.70;75.50;10.20;97229.00;;;;5051613;28;20250;-61
2023/10/04 07:42:45;;;;;;;0.80;0.80;;;10.80;75.60;10.30;97207.00;;;;5053190;28;20548;-61
2023/10/04 07:45:14;;;;;;;0.73;0.73;;;10.90;75.30;10.40;97233.00;;;;5053255;28;20212;-60
2023/10/04 07:47:42;;;;;;;0.93;0.93;;;11.00;75.20;10.40;97232.00;;;;5053071;28;20270;-60
2023/10/04 07:50:11;;;;;;;0.50;0.50;;;11.00;74.70;10.40;97217.00;;;;5052981;28;20214;-60
2023/10/04 07:52:39;;;;;;;0.90;0.90;;;11.00;74.90;10.50;97229.00;;;;5052980;28;20640;-60
2023/10/04 07:55:12;;;;;;;1.00;1.00;;;11.10;75.10;10.50;97246.00;;;;5051690;28;20192;-60
2023/10/04 07:57:42;;;;;;;0.60;0.60;;;11.20;75.10;10.50;97238.00;;;;5052862;28;20690;-60
2023/10/04 08:00:13;;;;;;;0.80;0.80;;;11.20;75.30;10.60;97229.00;;;;5053081;28;20192;-60
2023/10/04 08:02:45;;;;;;;0.60;0.60;;;11.20;76.20;10.60;97245.00;;;;5052715;28;20274;-62
2023/10/04 08:05:18;;;;;;;0.60;0.60;;;11.30;76.60;10.70;97248.00;;;;5052489;28;20183;-61
2023/10/04 08:07:45;;;;;;;0.93;0.90;;;11.30;76.80;10.60;97242.00;;;;5053281;28;20188;-60
2023/10/04 08:10:13;;;;;;;0.60;0.60;;;11.30;77.50;10.80;97245.00;;;;5052873;28;20678;-60
2023/10/04 08:12:43;;;;;;;0.83;0.83;;;11.40;78.40;11.00;97245.00;;;;5052626;28;20235;-60
2023/10/04 08:15:14;;;;;;;0.60;0.60;;;11.60;78.30;11.20;97242.00;;;;5052873;28;20620;-61
2023/10/04 08:17:43;;;;;;;0.63;0.63;;;11.80;77.90;11.40;97243.00;;;;5051283;28;20215;-60
2023/10/04 08:20:14;;;;;;;0.73;0.73;;;11.90;77.40;11.50;97236.00;;;;5052732;28;20283;-60
2023/10/04 08:22:42;;;;;;;0.90;0.90;;;12.10;77.10;11.70;97237.00;;;;5053057;28;20227;-60
2023/10/04 08:25:12;;;;;;;9.90;1.27;;;;;11.80;97237.00;;;;5053348;28;20195;-60
2023/10/04 08:27:42;;;;;;;0.57;0.57;;;;;12.00;97233.00;;;;5053020;28;20184;-61
2023/10/04 08:30:12;;;;;;;0.60;0.60;;;12.50;74.20;12.10;97239.00;;;;5052790;28;20687;-60
2023/10/04 08:32:41;;;;;;;1.10;1.10;;;;;12.30;97240.00;;;;5052412;28;20212;-60
2023/10/04 08:35:21;;;;;;;0.80;0.80;;;12.80;73.20;12.50;97241.00;;;;5052608;28;20196;-60
2023/10/04 08:37:49;;;;;;;0.80;0.80;;;13.00;73.00;12.60;97245.00;;;;5053964;28;20187;-60
2023/10/04 08:40:18;;;;;;;0.70;0.70;;;13.20;71.60;12.70;97253.00;;;;5056118;28;20682;-60
2023/10/04 08:42:50;;;;;;;1.37;1.27;;;13.30;70.50;12.90;97234.00;;;;5056388;28;20297;-61
2023/10/04 08:45:17;;;;;;;0.93;0.93;;;13.50;69.70;13.10;97245.00;;;;5056143;28;20199;-60
2023/10/04 08:47:50;;;;;;;6.43;1.17;;;13.50;68.10;13.30;97248.00;;;;5054922;28;20242;-60
2023/10/04 08:50:30;;;;;;;0.50;0.50;;;13.70;67.60;13.40;97246.00;;;;5055919;28;20173;-60
2023/10/04 08:53:04;;;;;;;0.80;0.80;;;13.90;68.40;13.70;97228.00;;;;5055619;28;20204;-60
2023/10/04 08:55:37;;;;;;;1.70;1.53;;;;;13.80;97228.00;;;;5055716;28;20290;-59
2023/10/04 08:58:07;;;;;;;0.70;0.70;;;14.30;64.80;13.90;97231.00;;;;5055842;28;20655;-60
2023/10/04 09:00:38;;;;;;;1.50;1.23;;;14.40;64.10;14.20;97228.00;;;;5056071;28;20188;-61
2023/10/04 09:03:08;;;;;;;0.70;0.70;;;14.60;64.20;14.30;97223.00;;;;5054331;28;20314;-60
2023/10/04 09:05:37;;;;;;;0.60;0.60;;;14.70;62.20;14.40;97234.00;;;;5054636;28;20211;-61
2023/10/04 09:08:05;;;;;;;0.90;0.90;;;;;14.70;97228.00;;;;5055867;28;20267;-61
2023/10/04 09:10:33;;;;;;;19.90;1.70;;;15.20;60.80;14.70;97224.00;;;;5055641;28;20206;-60
2023/10/04 09:13:03;;;;;;;0.60;0.60;;;15.20;57.70;14.80;97216.00;;;;5055517;28;20216;-60
2023/10/04 09:15:32;;;;;;;0.80;0.80;;;15.30;56.80;15.00;97189.00;;;;5056085;28;20176;-61
2023/10/04 09:18:02;;;;;;;0.60;0.60;;;15.50;56.80;15.20;97202.00;;;;5055412;28;20685;-60
2023/10/04 09:20:32;;;;;;;0.70;0.70;;;15.60;55.20;15.10;97209.00;;;;5055575;28;20176;-61
2023/10/04 09:23:00;;;;;;;4.23;1.13;;;15.60;55.30;15.30;97195.00;;;;5055635;28;20216;-61
2023/10/04 09:25:36;;;;;;;1.33;1.07;;;15.70;55.60;15.30;97199.00;;;;5055673;28;20631;-61
2023/10/04 09:28:04;;;;;;;0.70;0.70;;;15.80;55.30;15.50;97203.00;;;;5055948;28;20177;-61
2023/10/04 09:30:36;;;;;;;0.83;0.83;;;15.90;52.90;15.60;97200.00;;;;5055339;28;20196;-62
2023/10/04 09:33:06;;;;;;;0.60;0.60;;;16.00;53.80;15.90;97203.00;;;;5054041;28;20222;-61
2023/10/04 09:35:44;;;;;;;0.90;0.90;;;;;15.90;97202.00;;;;5055507;28;20558;-61
2023/10/04 09:38:16;;;;;;;0.60;0.60;;;16.30;50.30;16.10;97194.00;;;;5053737;28;20200;-61
2023/10/04 09:40:52;;;;;;;0.73;0.73;;;16.50;51.70;16.30;97192.00;;;;5053818;28;20739;-61
2023/10/04 09:43:32;;;;;;;0.77;0.77;;;16.70;50.30;16.20;97199.00;;;;5055661;28;20236;-62
2023/10/04 09:46:00;;;;;;;0.50;0.50;;;16.60;46.20;16.10;97192.00;;;;5055335;28;20187;-61
2023/10/04 09:48:33;;;;;;;0.50;0.50;;;16.60;47.80;15.80;97190.00;;;;5054992;28;20189;-61
2023/10/04 09:51:01;;;;;;;0.60;0.60;;;;;15.80;97189.00;;;;5055374;28;20176;-62
2023/10/04 09:53:29;;;;;;;0.60;0.60;;;;;16.00;97183.00;;;;5053431;28;20636;-61
2023/10/04 09:56:02;;;;;;;0.80;0.80;;;;;15.80;97182.00;;;;5054910;28;20192;-61
2023/10/04 09:58:32;;;;;;;0.50;0.50;;;;;15.70;97186.00;;;;5053494;28;20662;-61
2023/10/04 10:01:07;;;;;;;0.70;0.70;;;;;15.60;97194.00;;;;5054620;28;20192;-61
2023/10/04 10:03:41;;;;;;;3.27;1.20;;;;;15.60;97188.00;;;;5053427;28;20187;-61
2023/10/04 10:06:11;;;;;;;0.70;0.70;;;;;15.90;97175.00;;;;5054988;28;20184;-61
2023/10/04 10:08:42;;;;;;;0.77;0.77;;;;;15.70;97178.00;;;;5055140;28;20196;-61
2023/10/04 10:11:11;;;;;;;0.70;0.70;;;;;16.10;97181.00;;;;5054341;28;20223;-61
2023/10/04 10:13:40;;;;;;;0.70;0.70;;;;;16.00;97177.00;;;;5054296;28;20208;-62
2023/10/04 10:16:11;;;;;;;0.60;0.60;;;;;15.80;97177.00;;;;5054438;28;20192;-62
2023/10/04 10:18:39;;;;;;;0.60;0.60;;;;;16.20;97181.00;;;;5054347;28;20238;-62
2023/10/04 10:21:08;;;;;;;0.50;0.50;;;;;16.30;97179.00;;;;5054417;28;20581;-61
2023/10/04 10:23:56;;;;;;;0.63;0.63;;;;;16.50;97181.00;;;;5054388;28;20223;-61
2023/10/04 10:26:24;;;;;;;0.50;0.50;;;;;16.90;97184.00;;;;5052742;28;20200;-61
2023/10/04 10:29:03;;;;;;;1.37;0.80;;;;;17.40;97176.00;;;;5054305;28;20216;-61
2023/10/04 10:31:32;;;;;;;0.40;0.40;;;;;17.80;97184.00;;;;5052829;28;20222;-61
2023/10/04 10:34:00;;;;;;;1.80;1.17;;;;;18.00;97183.00;;;;5054043;28;20196;-61
2023/10/04 10:36:31;;;;;;;0.60;0.60;;;;;17.80;97206.00;;;;5053971;28;20290;-62
2023/10/04 10:38:59;;;;;;;0.50;0.50;;;;;16.70;97206.00;;;;5054021;28;20215;-62
2023/10/04 10:42:04;;;;;;;1.67;1.57;;;;;16.50;97181.00;;;;5053992;28;20244;-61
2023/10/04 10:44:33;;;;;;;0.40;0.40;;;;;17.00;97208.00;;;;5052421;28;20607;-61
2023/10/04 10:47:07;;;;;;;0.70;0.70;;;;;16.70;97204.00;;;;5055609;28;20220;-61
2023/10/04 10:49:52;;;;;;;0.67;0.67;;;;;16.60;97198.00;;;;5054284;28;20190;-61
2023/10/04 10:52:31;;;;;;;0.70;0.70;;;;;16.80;97174.00;;;;5054296;28;20216;-61
2023/10/04 10:55:00;;;;;;;0.60;0.60;;;;;16.70;97195.00;;;;5054013;28;20200;-61
2023/10/04 10:57:28;;;;;;;0.50;0.50;;;;;16.50;97185.00;;;;5053710;28;20239;-62
2023/10/04 10:59:57;;;;;;;0.70;0.70;;;;;17.10;97169.00;;;;5053479;28;20600;-62
2023/10/04 11:02:27;;;;;;;1.43;0.70;;;;;17.10;97160.00;;;;5053295;28;20584;-61
2023/10/04 11:04:55;;;;;;;0.73;0.73;;;;;17.30;97163.00;;;;5053769;28;20203;-62
2023/10/04 11:07:24;;;;;;;0.63;0.63;;;;;17.50;97166.00;;;;5053763;28;20196;-62
2023/10/04 11:09:52;;;;;;;0.80;0.80;;;;;17.40;97154.00;;;;5053562;28;20200;-61
2023/10/04 11:12:22;;;;;;;0.50;0.50;;;;;17.30;97165.00;;;;5053516;28;20214;-60
2023/10/04 11:14:50;;;;;;;0.80;0.80;;;;;17.80;97163.00;;;;5053281;28;20203;-60
2023/10/04 11:17:20;;;;;;;0.80;0.80;;;;;17.70;97156.00;;;;5053111;28;20207;-60
2023/10/04 11:19:50;;;;;;;0.47;0.47;;;;;17.70;97169.00;;;;5053433;28;20199;-60
2023/10/04 11:22:20;;;;;;;0.50;0.50;;;;;17.60;97140.00;;;;5053046;28;20731;-61
2023/10/04 11:24:48;;;;;;;0.70;0.70;;;;;18.10;97158.00;;;;5053254;28;20549;-61
2023/10/04 11:27:22;;;;;;;0.73;0.73;;;;;17.80;97136.00;;;;5053145;28;20195;-61
2023/10/04 11:29:52;;;;;;;1.00;1.00;;;;;18.40;97149.00;;;;5051709;28;20192;-61